sensor_id;sensor_type;location;lat;lon;timestamp;P1;durP1;ratioP1;P2;durP2;ratioP2
10471;SDS011;5283;48.876;8.962;2022-12-18T00:03:50;34.90;;;17.37;;
10471;SDS011;5283;48.876;8.962;2022-12-18T00:06:18;32.80;;;16.47;;
10471;SDS011;5283;48.876;8.962;2022-12-18T00:08:46;34.13;;;16.57;;
10471;SDS011;5283;48.876;8.962;2022-12-18T00:11:16;35.43;;;16.90;;
10471;SDS011;5283;48.876;8.962;2022-12-18T00:13:46;30.90;;;15.00;;
10471;SDS011;5283;48.876;8.962;2022-12-18T00:16:15;37.73;;;16.60;;
10471;SDS011;5283;48.876;8.962;2022-12-18T00:18:47;29.77;;;16.30;;
10471;SDS011;5283;48.876;8.962;2022-12-18T00:21:15;45.63;;;16.80;;
10471;SDS011;5283;48.876;8.962;2022-12-18T00:23:43;37.77;;;18.23;;
10471;SDS011;5283;48.876;8.962;2022-12-18T00:26:11;33.87;;;16.03;;
10471;SDS011;5283;48.876;8.962;2022-12-18T00:28:42;30.83;;;16.23;;
10471;SDS011;5283;48.876;8.962;2022-12-18T00:31:10;33.90;;;16.00;;
10471;SDS011;5283;48.876;8.962;2022-12-18T00:33:40;34.80;;;18.17;;
10471;SDS011;5283;48.876;8.962;2022-12-18T00:36:11;33.07;;;16.80;;
10471;SDS011;5283;48.876;8.962;2022-12-18T00:38:39;34.60;;;16.90;;
10471;SDS011;5283;48.876;8.962;2022-12-18T00:41:07;34.93;;;16.77;;
10471;SDS011;5283;48.876;8.962;2022-12-18T00:43:35;31.67;;;16.13;;
10471;SDS011;5283;48.876;8.962;2022-12-18T00:46:02;32.03;;;15.90;;
10471;SDS011;5283;48.876;8.962;2022-12-18T00:48:29;36.10;;;16.30;;
10471;SDS011;5283;48.876;8.962;2022-12-18T00:50:56;36.47;;;16.17;;
10471;SDS011;5283;48.876;8.962;2022-12-18T00:53:23;30.13;;;15.30;;
10471;SDS011;5283;48.876;8.962;2022-12-18T00:55:49;32.93;;;15.93;;
10471;SDS011;5283;48.876;8.962;2022-12-18T00:58:16;29.00;;;15.47;;
10471;SDS011;5283;48.876;8.962;2022-12-18T01:00:43;37.57;;;17.03;;
10471;SDS011;5283;48.876;8.962;2022-12-18T01:03:12;34.90;;;16.23;;
10471;SDS011;5283;48.876;8.962;2022-12-18T01:05:40;29.90;;;14.87;;
10471;SDS011;5283;48.876;8.962;2022-12-18T01:08:08;34.57;;;14.67;;
10471;SDS011;5283;48.876;8.962;2022-12-18T01:10:35;27.07;;;15.60;;
10471;SDS011;5283;48.876;8.962;2022-12-18T01:13:02;31.50;;;13.70;;
10471;SDS011;5283;48.876;8.962;2022-12-18T01:15:28;37.10;;;14.73;;
10471;SDS011;5283;48.876;8.962;2022-12-18T01:17:55;28.73;;;16.03;;
10471;SDS011;5283;48.876;8.962;2022-12-18T01:20:22;36.43;;;16.53;;
10471;SDS011;5283;48.876;8.962;2022-12-18T01:22:49;32.97;;;15.57;;
10471;SDS011;5283;48.876;8.962;2022-12-18T01:25:15;28.73;;;14.10;;
10471;SDS011;5283;48.876;8.962;2022-12-18T01:27:42;26.47;;;13.83;;
10471;SDS011;5283;48.876;8.962;2022-12-18T01:30:09;28.50;;;15.20;;
10471;SDS011;5283;48.876;8.962;2022-12-18T01:32:36;29.83;;;15.53;;
10471;SDS011;5283;48.876;8.962;2022-12-18T01:35:03;28.03;;;15.07;;
10471;SDS011;5283;48.876;8.962;2022-12-18T01:37:30;30.77;;;15.30;;
10471;SDS011;5283;48.876;8.962;2022-12-18T01:39:57;33.23;;;17.57;;
10471;SDS011;5283;48.876;8.962;2022-12-18T01:42:23;36.73;;;17.00;;
10471;SDS011;5283;48.876;8.962;2022-12-18T01:47:35;32.17;;;16.43;;
10471;SDS011;5283;48.876;8.962;2022-12-18T01:52:34;32.63;;;15.97;;
10471;SDS011;5283;48.876;8.962;2022-12-18T01:55:03;34.70;;;15.50;;
10471;SDS011;5283;48.876;8.962;2022-12-18T01:57:31;26.37;;;14.13;;
10471;SDS011;5283;48.876;8.962;2022-12-18T02:00:03;31.03;;;14.77;;
10471;SDS011;5283;48.876;8.962;2022-12-18T02:02:32;32.80;;;15.50;;
10471;SDS011;5283;48.876;8.962;2022-12-18T02:04:59;33.77;;;15.93;;
10471;SDS011;5283;48.876;8.962;2022-12-18T02:10:43;32.60;;;15.07;;
10471;SDS011;5283;48.876;8.962;2022-12-18T02:13:13;29.70;;;13.73;;
10471;SDS011;5283;48.876;8.962;2022-12-18T02:15:48;29.77;;;14.67;;
10471;SDS011;5283;48.876;8.962;2022-12-18T02:18:46;33.20;;;14.93;;
10471;SDS011;5283;48.876;8.962;2022-12-18T02:29:03;33.87;;;15.90;;
10471;SDS011;5283;48.876;8.962;2022-12-18T02:31:40;31.53;;;15.20;;
10471;SDS011;5283;48.876;8.962;2022-12-18T02:34:14;32.90;;;15.63;;
10471;SDS011;5283;48.876;8.962;2022-12-18T02:36:42;30.27;;;15.67;;
10471;SDS011;5283;48.876;8.962;2022-12-18T02:39:11;29.97;;;16.10;;
10471;SDS011;5283;48.876;8.962;2022-12-18T02:41:39;33.67;;;16.33;;
10471;SDS011;5283;48.876;8.962;2022-12-18T02:44:07;31.93;;;16.23;;
10471;SDS011;5283;48.876;8.962;2022-12-18T02:46:39;31.50;;;16.20;;
10471;SDS011;5283;48.876;8.962;2022-12-18T03:01:08;30.93;;;16.40;;
10471;SDS011;5283;48.876;8.962;2022-12-18T03:04:11;34.67;;;16.53;;
10471;SDS011;5283;48.876;8.962;2022-12-18T03:06:18;37.20;;;15.30;;
10471;SDS011;5283;48.876;8.962;2022-12-18T03:08:52;37.97;;;17.27;;
10471;SDS011;5283;48.876;8.962;2022-12-18T03:11:24;35.00;;;16.83;;
10471;SDS011;5283;48.876;8.962;2022-12-18T03:14:12;35.07;;;17.20;;
10471;SDS011;5283;48.876;8.962;2022-12-18T03:16:42;33.70;;;16.60;;
10471;SDS011;5283;48.876;8.962;2022-12-18T03:19:11;35.50;;;16.27;;
10471;SDS011;5283;48.876;8.962;2022-12-18T03:21:45;34.13;;;16.60;;
10471;SDS011;5283;48.876;8.962;2022-12-18T03:24:15;35.27;;;15.87;;
10471;SDS011;5283;48.876;8.962;2022-12-18T03:26:44;34.17;;;16.57;;
10471;SDS011;5283;48.876;8.962;2022-12-18T03:29:30;30.23;;;15.43;;
10471;SDS011;5283;48.876;8.962;2022-12-18T03:32:08;33.23;;;16.60;;
10471;SDS011;5283;48.876;8.962;2022-12-18T03:34:42;29.23;;;15.53;;
10471;SDS011;5283;48.876;8.962;2022-12-18T03:37:13;35.97;;;17.00;;
10471;SDS011;5283;48.876;8.962;2022-12-18T03:39:40;36.43;;;16.63;;
10471;SDS011;5283;48.876;8.962;2022-12-18T03:42:10;36.07;;;17.00;;
10471;SDS011;5283;48.876;8.962;2022-12-18T03:44:54;36.10;;;16.60;;
10471;SDS011;5283;48.876;8.962;2022-12-18T03:47:51;32.93;;;15.63;;
10471;SDS011;5283;48.876;8.962;2022-12-18T03:50:28;31.20;;;16.47;;
10471;SDS011;5283;48.876;8.962;2022-12-18T03:56:01;32.60;;;15.53;;
10471;SDS011;5283;48.876;8.962;2022-12-18T03:58:30;27.73;;;14.47;;
10471;SDS011;5283;48.876;8.962;2022-12-18T04:01:01;29.47;;;14.57;;
10471;SDS011;5283;48.876;8.962;2022-12-18T04:03:30;27.53;;;14.63;;
10471;SDS011;5283;48.876;8.962;2022-12-18T04:06:01;33.77;;;15.90;;
10471;SDS011;5283;48.876;8.962;2022-12-18T04:08:29;33.20;;;15.57;;
10471;SDS011;5283;48.876;8.962;2022-12-18T04:10:56;31.40;;;15.20;;
10471;SDS011;5283;48.876;8.962;2022-12-18T04:13:32;29.77;;;14.87;;
10471;SDS011;5283;48.876;8.962;2022-12-18T04:16:02;32.77;;;15.07;;
10471;SDS011;5283;48.876;8.962;2022-12-18T04:18:29;30.00;;;14.80;;
10471;SDS011;5283;48.876;8.962;2022-12-18T04:20:56;32.60;;;14.37;;
10471;SDS011;5283;48.876;8.962;2022-12-18T04:23:23;27.37;;;13.80;;
10471;SDS011;5283;48.876;8.962;2022-12-18T04:25:50;26.80;;;13.83;;
10471;SDS011;5283;48.876;8.962;2022-12-18T04:28:16;28.87;;;13.63;;
10471;SDS011;5283;48.876;8.962;2022-12-18T04:30:43;29.60;;;13.60;;
10471;SDS011;5283;48.876;8.962;2022-12-18T04:33:11;27.03;;;13.63;;
10471;SDS011;5283;48.876;8.962;2022-12-18T04:35:41;26.47;;;13.47;;
10471;SDS011;5283;48.876;8.962;2022-12-18T04:38:08;24.43;;;13.60;;
10471;SDS011;5283;48.876;8.962;2022-12-18T04:40:36;26.70;;;13.40;;
10471;SDS011;5283;48.876;8.962;2022-12-18T04:43:04;23.27;;;13.10;;
10471;SDS011;5283;48.876;8.962;2022-12-18T04:45:31;29.00;;;13.93;;
10471;SDS011;5283;48.876;8.962;2022-12-18T04:47:59;30.67;;;14.43;;
10471;SDS011;5283;48.876;8.962;2022-12-18T04:50:26;30.47;;;13.60;;
10471;SDS011;5283;48.876;8.962;2022-12-18T04:52:53;35.23;;;14.47;;
10471;SDS011;5283;48.876;8.962;2022-12-18T04:55:21;25.50;;;14.10;;
10471;SDS011;5283;48.876;8.962;2022-12-18T04:57:51;26.57;;;14.17;;
10471;SDS011;5283;48.876;8.962;2022-12-18T05:00:17;29.57;;;14.97;;
10471;SDS011;5283;48.876;8.962;2022-12-18T05:02:44;30.67;;;14.83;;
10471;SDS011;5283;48.876;8.962;2022-12-18T05:05:12;32.63;;;15.60;;
10471;SDS011;5283;48.876;8.962;2022-12-18T05:07:39;27.00;;;14.60;;
10471;SDS011;5283;48.876;8.962;2022-12-18T05:10:06;24.37;;;13.87;;
10471;SDS011;5283;48.876;8.962;2022-12-18T05:12:33;26.73;;;13.87;;
10471;SDS011;5283;48.876;8.962;2022-12-18T05:14:59;29.33;;;14.93;;
10471;SDS011;5283;48.876;8.962;2022-12-18T05:17:29;31.47;;;15.90;;
10471;SDS011;5283;48.876;8.962;2022-12-18T05:19:55;29.20;;;14.03;;
10471;SDS011;5283;48.876;8.962;2022-12-18T05:22:22;28.07;;;14.13;;
10471;SDS011;5283;48.876;8.962;2022-12-18T05:24:49;30.07;;;14.73;;
10471;SDS011;5283;48.876;8.962;2022-12-18T05:27:16;30.63;;;14.77;;
10471;SDS011;5283;48.876;8.962;2022-12-18T05:29:43;30.87;;;15.17;;
10471;SDS011;5283;48.876;8.962;2022-12-18T05:32:10;28.93;;;15.70;;
10471;SDS011;5283;48.876;8.962;2022-12-18T05:34:37;32.03;;;15.27;;
10471;SDS011;5283;48.876;8.962;2022-12-18T05:37:04;25.50;;;13.57;;
10471;SDS011;5283;48.876;8.962;2022-12-18T05:39:30;26.47;;;13.40;;
10471;SDS011;5283;48.876;8.962;2022-12-18T05:41:57;26.50;;;13.67;;
10471;SDS011;5283;48.876;8.962;2022-12-18T05:44:24;26.23;;;13.67;;
10471;SDS011;5283;48.876;8.962;2022-12-18T05:46:50;28.83;;;13.80;;
10471;SDS011;5283;48.876;8.962;2022-12-18T05:49:17;28.73;;;13.53;;
10471;SDS011;5283;48.876;8.962;2022-12-18T05:51:44;28.23;;;13.23;;
10471;SDS011;5283;48.876;8.962;2022-12-18T05:54:11;27.50;;;13.90;;
10471;SDS011;5283;48.876;8.962;2022-12-18T05:56:37;30.97;;;14.80;;
10471;SDS011;5283;48.876;8.962;2022-12-18T05:59:06;26.60;;;13.23;;
10471;SDS011;5283;48.876;8.962;2022-12-18T06:01:32;26.57;;;13.90;;
10471;SDS011;5283;48.876;8.962;2022-12-18T06:03:59;27.37;;;13.53;;
10471;SDS011;5283;48.876;8.962;2022-12-18T06:06:27;25.90;;;13.77;;
10471;SDS011;5283;48.876;8.962;2022-12-18T06:08:54;27.17;;;13.47;;
10471;SDS011;5283;48.876;8.962;2022-12-18T06:11:23;32.20;;;14.10;;
10471;SDS011;5283;48.876;8.962;2022-12-18T06:13:54;25.57;;;12.40;;
10471;SDS011;5283;48.876;8.962;2022-12-18T06:16:23;28.80;;;12.53;;
10471;SDS011;5283;48.876;8.962;2022-12-18T06:18:50;26.00;;;12.33;;
10471;SDS011;5283;48.876;8.962;2022-12-18T06:21:17;30.87;;;13.93;;
10471;SDS011;5283;48.876;8.962;2022-12-18T06:23:43;30.60;;;14.33;;
10471;SDS011;5283;48.876;8.962;2022-12-18T06:26:11;33.73;;;14.60;;
10471;SDS011;5283;48.876;8.962;2022-12-18T06:28:38;31.83;;;13.73;;
10471;SDS011;5283;48.876;8.962;2022-12-18T06:31:06;32.90;;;14.53;;
10471;SDS011;5283;48.876;8.962;2022-12-18T06:33:33;32.77;;;14.90;;
10471;SDS011;5283;48.876;8.962;2022-12-18T06:36:04;32.50;;;14.23;;
10471;SDS011;5283;48.876;8.962;2022-12-18T06:38:34;34.97;;;15.90;;
10471;SDS011;5283;48.876;8.962;2022-12-18T06:41:12;39.07;;;15.77;;
10471;SDS011;5283;48.876;8.962;2022-12-18T06:43:40;32.97;;;15.77;;
10471;SDS011;5283;48.876;8.962;2022-12-18T06:46:07;36.13;;;16.07;;
10471;SDS011;5283;48.876;8.962;2022-12-18T06:48:34;36.33;;;16.93;;
10471;SDS011;5283;48.876;8.962;2022-12-18T06:51:01;33.60;;;15.67;;
10471;SDS011;5283;48.876;8.962;2022-12-18T06:53:28;34.97;;;16.50;;
10471;SDS011;5283;48.876;8.962;2022-12-18T06:56:02;39.87;;;15.20;;
10471;SDS011;5283;48.876;8.962;2022-12-18T06:58:33;34.67;;;16.33;;
10471;SDS011;5283;48.876;8.962;2022-12-18T07:01:03;36.90;;;16.77;;
10471;SDS011;5283;48.876;8.962;2022-12-18T07:03:31;39.80;;;17.13;;
10471;SDS011;5283;48.876;8.962;2022-12-18T07:05:58;35.93;;;16.60;;
10471;SDS011;5283;48.876;8.962;2022-12-18T07:08:25;32.83;;;16.10;;
10471;SDS011;5283;48.876;8.962;2022-12-18T07:10:52;35.77;;;16.30;;
10471;SDS011;5283;48.876;8.962;2022-12-18T07:13:21;36.80;;;17.43;;
10471;SDS011;5283;48.876;8.962;2022-12-18T07:15:48;32.10;;;15.90;;
10471;SDS011;5283;48.876;8.962;2022-12-18T07:18:15;37.60;;;16.77;;
10471;SDS011;5283;48.876;8.962;2022-12-18T07:20:41;47.43;;;20.03;;
10471;SDS011;5283;48.876;8.962;2022-12-18T07:23:08;38.23;;;17.83;;
10471;SDS011;5283;48.876;8.962;2022-12-18T07:25:35;35.93;;;17.20;;
10471;SDS011;5283;48.876;8.962;2022-12-18T07:28:03;37.10;;;18.17;;
10471;SDS011;5283;48.876;8.962;2022-12-18T07:30:30;40.67;;;19.40;;
10471;SDS011;5283;48.876;8.962;2022-12-18T07:32:57;33.83;;;16.93;;
10471;SDS011;5283;48.876;8.962;2022-12-18T07:35:24;32.87;;;15.17;;
10471;SDS011;5283;48.876;8.962;2022-12-18T07:37:50;29.27;;;15.23;;
10471;SDS011;5283;48.876;8.962;2022-12-18T07:40:17;31.57;;;15.57;;
10471;SDS011;5283;48.876;8.962;2022-12-18T07:42:44;31.37;;;15.73;;
10471;SDS011;5283;48.876;8.962;2022-12-18T07:45:10;29.43;;;15.07;;
10471;SDS011;5283;48.876;8.962;2022-12-18T07:47:37;30.03;;;16.57;;
10471;SDS011;5283;48.876;8.962;2022-12-18T07:50:04;31.87;;;15.17;;
10471;SDS011;5283;48.876;8.962;2022-12-18T07:52:32;33.33;;;16.03;;
10471;SDS011;5283;48.876;8.962;2022-12-18T07:54:58;33.20;;;15.73;;
10471;SDS011;5283;48.876;8.962;2022-12-18T07:57:25;36.63;;;16.40;;
10471;SDS011;5283;48.876;8.962;2022-12-18T08:00:12;31.67;;;14.00;;
10471;SDS011;5283;48.876;8.962;2022-12-18T08:02:39;34.87;;;16.57;;
10471;SDS011;5283;48.876;8.962;2022-12-18T08:05:06;31.30;;;16.60;;
10471;SDS011;5283;48.876;8.962;2022-12-18T08:07:33;31.87;;;15.60;;
10471;SDS011;5283;48.876;8.962;2022-12-18T08:10:00;32.07;;;15.93;;
10471;SDS011;5283;48.876;8.962;2022-12-18T08:12:26;33.17;;;15.67;;
10471;SDS011;5283;48.876;8.962;2022-12-18T08:14:53;29.63;;;16.07;;
10471;SDS011;5283;48.876;8.962;2022-12-18T08:17:20;33.60;;;17.00;;
10471;SDS011;5283;48.876;8.962;2022-12-18T08:19:47;37.03;;;17.40;;
10471;SDS011;5283;48.876;8.962;2022-12-18T08:22:13;34.30;;;17.47;;
10471;SDS011;5283;48.876;8.962;2022-12-18T08:24:40;32.40;;;16.60;;
10471;SDS011;5283;48.876;8.962;2022-12-18T08:27:07;39.07;;;19.33;;
10471;SDS011;5283;48.876;8.962;2022-12-18T08:29:53;35.13;;;18.30;;
10471;SDS011;5283;48.876;8.962;2022-12-18T08:32:20;35.10;;;17.27;;
10471;SDS011;5283;48.876;8.962;2022-12-18T08:34:47;32.73;;;16.10;;
10471;SDS011;5283;48.876;8.962;2022-12-18T08:37:13;29.03;;;15.27;;
10471;SDS011;5283;48.876;8.962;2022-12-18T08:39:40;30.97;;;15.80;;
10471;SDS011;5283;48.876;8.962;2022-12-18T08:42:07;31.93;;;15.97;;
10471;SDS011;5283;48.876;8.962;2022-12-18T08:44:52;31.03;;;15.57;;
10471;SDS011;5283;48.876;8.962;2022-12-18T08:47:19;31.70;;;16.83;;
10471;SDS011;5283;48.876;8.962;2022-12-18T08:49:46;31.07;;;17.63;;
10471;SDS011;5283;48.876;8.962;2022-12-18T08:52:13;36.03;;;18.00;;
10471;SDS011;5283;48.876;8.962;2022-12-18T08:54:39;43.43;;;21.07;;
10471;SDS011;5283;48.876;8.962;2022-12-18T08:57:06;35.30;;;20.00;;
10471;SDS011;5283;48.876;8.962;2022-12-18T08:59:33;31.27;;;19.07;;
10471;SDS011;5283;48.876;8.962;2022-12-18T09:01:59;35.90;;;18.30;;
10471;SDS011;5283;48.876;8.962;2022-12-18T09:04:26;34.90;;;18.93;;
10471;SDS011;5283;48.876;8.962;2022-12-18T09:06:53;33.07;;;17.50;;
10471;SDS011;5283;48.876;8.962;2022-12-18T09:09:20;33.50;;;17.90;;
10471;SDS011;5283;48.876;8.962;2022-12-18T09:11:47;31.80;;;17.43;;
10471;SDS011;5283;48.876;8.962;2022-12-18T09:14:13;27.63;;;17.43;;
10471;SDS011;5283;48.876;8.962;2022-12-18T09:16:40;34.73;;;18.40;;
10471;SDS011;5283;48.876;8.962;2022-12-18T09:19:07;32.07;;;18.27;;
10471;SDS011;5283;48.876;8.962;2022-12-18T09:21:35;34.50;;;17.33;;
10471;SDS011;5283;48.876;8.962;2022-12-18T09:24:02;33.00;;;17.80;;
10471;SDS011;5283;48.876;8.962;2022-12-18T09:26:29;32.97;;;17.93;;
10471;SDS011;5283;48.876;8.962;2022-12-18T09:28:56;32.13;;;18.77;;
10471;SDS011;5283;48.876;8.962;2022-12-18T09:31:23;32.10;;;18.10;;
10471;SDS011;5283;48.876;8.962;2022-12-18T09:33:50;34.43;;;19.53;;
10471;SDS011;5283;48.876;8.962;2022-12-18T09:36:17;33.00;;;19.27;;
10471;SDS011;5283;48.876;8.962;2022-12-18T09:38:44;33.87;;;18.97;;
10471;SDS011;5283;48.876;8.962;2022-12-18T09:44:21;32.87;;;18.97;;
10471;SDS011;5283;48.876;8.962;2022-12-18T09:47:02;39.37;;;18.97;;
10471;SDS011;5283;48.876;8.962;2022-12-18T09:49:47;31.83;;;18.43;;
10471;SDS011;5283;48.876;8.962;2022-12-18T09:57:35;36.00;;;20.50;;
10471;SDS011;5283;48.876;8.962;2022-12-18T10:00:16;33.33;;;18.57;;
10471;SDS011;5283;48.876;8.962;2022-12-18T10:02:46;33.83;;;19.70;;
10471;SDS011;5283;48.876;8.962;2022-12-18T10:05:14;36.27;;;21.43;;
10471;SDS011;5283;48.876;8.962;2022-12-18T10:07:49;34.37;;;20.20;;
10471;SDS011;5283;48.876;8.962;2022-12-18T10:10:32;37.47;;;21.47;;
10471;SDS011;5283;48.876;8.962;2022-12-18T10:13:39;36.70;;;21.60;;
10471;SDS011;5283;48.876;8.962;2022-12-18T10:21:23;33.10;;;20.07;;
10471;SDS011;5283;48.876;8.962;2022-12-18T10:26:45;32.57;;;20.53;;
10471;SDS011;5283;48.876;8.962;2022-12-18T10:29:14;35.57;;;19.87;;
10471;SDS011;5283;48.876;8.962;2022-12-18T10:31:42;30.43;;;20.13;;
10471;SDS011;5283;48.876;8.962;2022-12-18T10:34:10;31.47;;;20.10;;
10471;SDS011;5283;48.876;8.962;2022-12-18T10:36:37;35.93;;;22.17;;
10471;SDS011;5283;48.876;8.962;2022-12-18T10:39:15;35.67;;;20.83;;
10471;SDS011;5283;48.876;8.962;2022-12-18T10:41:49;35.57;;;21.40;;
10471;SDS011;5283;48.876;8.962;2022-12-18T10:46:51;29.77;;;18.97;;
10471;SDS011;5283;48.876;8.962;2022-12-18T10:49:23;31.80;;;18.97;;
10471;SDS011;5283;48.876;8.962;2022-12-18T10:54:58;33.60;;;19.20;;
10471;SDS011;5283;48.876;8.962;2022-12-18T10:57:29;38.60;;;19.47;;
10471;SDS011;5283;48.876;8.962;2022-12-18T10:59:57;30.53;;;19.57;;
10471;SDS011;5283;48.876;8.962;2022-12-18T11:02:44;31.30;;;19.80;;
10471;SDS011;5283;48.876;8.962;2022-12-18T11:05:33;32.60;;;19.93;;
10471;SDS011;5283;48.876;8.962;2022-12-18T11:08:00;29.67;;;19.17;;
10471;SDS011;5283;48.876;8.962;2022-12-18T11:10:29;33.20;;;20.00;;
10471;SDS011;5283;48.876;8.962;2022-12-18T11:13:19;31.43;;;19.53;;
10471;SDS011;5283;48.876;8.962;2022-12-18T11:15:47;29.00;;;18.97;;
10471;SDS011;5283;48.876;8.962;2022-12-18T11:18:33;36.60;;;20.60;;
10471;SDS011;5283;48.876;8.962;2022-12-18T11:21:10;29.90;;;18.63;;
10471;SDS011;5283;48.876;8.962;2022-12-18T11:23:51;29.30;;;18.90;;
10471;SDS011;5283;48.876;8.962;2022-12-18T11:26:19;28.17;;;18.30;;
10471;SDS011;5283;48.876;8.962;2022-12-18T11:28:54;29.10;;;18.57;;
10471;SDS011;5283;48.876;8.962;2022-12-18T11:31:35;32.27;;;19.03;;
10471;SDS011;5283;48.876;8.962;2022-12-18T11:36:54;31.20;;;19.17;;
10471;SDS011;5283;48.876;8.962;2022-12-18T11:39:45;28.10;;;18.40;;
10471;SDS011;5283;48.876;8.962;2022-12-18T11:53:02;31.10;;;19.97;;
10471;SDS011;5283;48.876;8.962;2022-12-18T11:55:39;31.23;;;20.03;;
10471;SDS011;5283;48.876;8.962;2022-12-18T12:01:00;31.07;;;18.47;;
10471;SDS011;5283;48.876;8.962;2022-12-18T12:03:36;29.30;;;18.47;;
10471;SDS011;5283;48.876;8.962;2022-12-18T12:06:16;29.17;;;18.67;;
10471;SDS011;5283;48.876;8.962;2022-12-18T12:09:04;27.30;;;17.77;;
10471;SDS011;5283;48.876;8.962;2022-12-18T12:12:10;31.73;;;19.80;;
10471;SDS011;5283;48.876;8.962;2022-12-18T12:14:45;32.17;;;18.13;;
10471;SDS011;5283;48.876;8.962;2022-12-18T12:17:37;27.07;;;17.70;;
10471;SDS011;5283;48.876;8.962;2022-12-18T12:25:55;32.87;;;19.50;;
10471;SDS011;5283;48.876;8.962;2022-12-18T12:32:04;32.00;;;18.93;;
10471;SDS011;5283;48.876;8.962;2022-12-18T12:34:58;28.27;;;17.40;;
10471;SDS011;5283;48.876;8.962;2022-12-18T12:40:15;29.80;;;18.13;;
10471;SDS011;5283;48.876;8.962;2022-12-18T12:51:18;28.67;;;17.93;;
10471;SDS011;5283;48.876;8.962;2022-12-18T12:53:46;26.53;;;17.17;;
10471;SDS011;5283;48.876;8.962;2022-12-18T12:56:14;29.90;;;17.80;;
10471;SDS011;5283;48.876;8.962;2022-12-18T12:58:49;28.73;;;17.53;;
10471;SDS011;5283;48.876;8.962;2022-12-18T13:01:34;28.77;;;17.00;;
10471;SDS011;5283;48.876;8.962;2022-12-18T13:12:51;26.27;;;17.33;;
10471;SDS011;5283;48.876;8.962;2022-12-18T13:15:43;29.83;;;17.13;;
10471;SDS011;5283;48.876;8.962;2022-12-18T13:18:13;27.93;;;16.87;;
10471;SDS011;5283;48.876;8.962;2022-12-18T13:23:33;30.00;;;17.17;;
10471;SDS011;5283;48.876;8.962;2022-12-18T13:31:15;28.77;;;18.27;;
10471;SDS011;5283;48.876;8.962;2022-12-18T13:36:51;26.33;;;16.73;;
10471;SDS011;5283;48.876;8.962;2022-12-18T13:41:53;26.40;;;17.33;;
10471;SDS011;5283;48.876;8.962;2022-12-18T13:45:00;32.47;;;20.43;;
10471;SDS011;5283;48.876;8.962;2022-12-18T13:47:31;27.27;;;18.13;;
10471;SDS011;5283;48.876;8.962;2022-12-18T13:50:00;29.67;;;18.23;;
10471;SDS011;5283;48.876;8.962;2022-12-18T13:52:36;31.87;;;18.23;;
10471;SDS011;5283;48.876;8.962;2022-12-18T13:55:06;29.90;;;17.67;;
10471;SDS011;5283;48.876;8.962;2022-12-18T13:57:41;29.57;;;17.57;;
10471;SDS011;5283;48.876;8.962;2022-12-18T14:02:57;27.33;;;17.17;;
10471;SDS011;5283;48.876;8.962;2022-12-18T14:05:34;28.93;;;17.03;;
10471;SDS011;5283;48.876;8.962;2022-12-18T14:08:08;28.67;;;18.03;;
10471;SDS011;5283;48.876;8.962;2022-12-18T14:10:42;30.43;;;17.77;;
10471;SDS011;5283;48.876;8.962;2022-12-18T14:13:15;26.27;;;18.53;;
10471;SDS011;5283;48.876;8.962;2022-12-18T14:15:58;27.43;;;17.27;;
10471;SDS011;5283;48.876;8.962;2022-12-18T14:18:38;26.83;;;16.80;;
10471;SDS011;5283;48.876;8.962;2022-12-18T14:21:05;29.87;;;18.07;;
10471;SDS011;5283;48.876;8.962;2022-12-18T14:23:41;30.87;;;16.57;;
10471;SDS011;5283;48.876;8.962;2022-12-18T14:26:20;27.77;;;17.73;;
10471;SDS011;5283;48.876;8.962;2022-12-18T14:29:00;29.87;;;18.07;;
10471;SDS011;5283;48.876;8.962;2022-12-18T14:34:49;30.57;;;18.10;;
10471;SDS011;5283;48.876;8.962;2022-12-18T14:37:21;32.60;;;18.13;;
10471;SDS011;5283;48.876;8.962;2022-12-18T14:40:01;31.07;;;17.33;;
10471;SDS011;5283;48.876;8.962;2022-12-18T14:42:34;32.20;;;18.30;;
10471;SDS011;5283;48.876;8.962;2022-12-18T14:48:05;27.97;;;17.67;;
10471;SDS011;5283;48.876;8.962;2022-12-18T14:50:34;30.13;;;17.30;;
10471;SDS011;5283;48.876;8.962;2022-12-18T14:53:01;32.20;;;18.20;;
10471;SDS011;5283;48.876;8.962;2022-12-18T14:55:29;31.70;;;17.43;;
10471;SDS011;5283;48.876;8.962;2022-12-18T14:57:56;31.73;;;18.97;;
10471;SDS011;5283;48.876;8.962;2022-12-18T15:00:24;30.80;;;16.07;;
10471;SDS011;5283;48.876;8.962;2022-12-18T15:02:55;30.03;;;16.20;;
10471;SDS011;5283;48.876;8.962;2022-12-18T15:07:54;32.67;;;16.13;;
10471;SDS011;5283;48.876;8.962;2022-12-18T15:10:26;28.13;;;16.03;;
10471;SDS011;5283;48.876;8.962;2022-12-18T15:23:21;27.97;;;16.53;;
10471;SDS011;5283;48.876;8.962;2022-12-18T15:25:49;28.50;;;15.80;;
10471;SDS011;5283;48.876;8.962;2022-12-18T15:28:32;27.67;;;16.30;;
10471;SDS011;5283;48.876;8.962;2022-12-18T15:33:39;27.73;;;15.53;;
10471;SDS011;5283;48.876;8.962;2022-12-18T15:36:13;28.20;;;16.57;;
10471;SDS011;5283;48.876;8.962;2022-12-18T15:38:41;31.07;;;17.83;;
10471;SDS011;5283;48.876;8.962;2022-12-18T15:41:13;30.83;;;17.20;;
10471;SDS011;5283;48.876;8.962;2022-12-18T15:43:43;31.00;;;17.90;;
10471;SDS011;5283;48.876;8.962;2022-12-18T15:46:14;30.43;;;16.63;;
10471;SDS011;5283;48.876;8.962;2022-12-18T15:48:52;29.23;;;16.10;;
10471;SDS011;5283;48.876;8.962;2022-12-18T15:51:28;29.13;;;16.20;;
10471;SDS011;5283;48.876;8.962;2022-12-18T15:53:59;33.43;;;17.37;;
10471;SDS011;5283;48.876;8.962;2022-12-18T15:56:30;32.43;;;17.57;;
10471;SDS011;5283;48.876;8.962;2022-12-18T15:59:16;30.20;;;16.10;;
10471;SDS011;5283;48.876;8.962;2022-12-18T16:01:46;31.87;;;16.83;;
10471;SDS011;5283;48.876;8.962;2022-12-18T16:04:15;31.13;;;17.50;;
10471;SDS011;5283;48.876;8.962;2022-12-18T16:06:43;31.20;;;17.27;;
10471;SDS011;5283;48.876;8.962;2022-12-18T16:09:29;30.43;;;17.37;;
10471;SDS011;5283;48.876;8.962;2022-12-18T16:11:56;32.57;;;17.93;;
10471;SDS011;5283;48.876;8.962;2022-12-18T16:14:24;41.90;;;20.63;;
10471;SDS011;5283;48.876;8.962;2022-12-18T16:16:53;36.33;;;19.20;;
10471;SDS011;5283;48.876;8.962;2022-12-18T16:19:22;34.60;;;18.43;;
10471;SDS011;5283;48.876;8.962;2022-12-18T16:21:49;34.90;;;18.00;;
10471;SDS011;5283;48.876;8.962;2022-12-18T16:24:19;36.10;;;19.00;;
10471;SDS011;5283;48.876;8.962;2022-12-18T16:26:48;37.10;;;18.80;;
10471;SDS011;5283;48.876;8.962;2022-12-18T16:29:17;36.03;;;18.97;;
10471;SDS011;5283;48.876;8.962;2022-12-18T16:31:45;36.00;;;19.07;;
10471;SDS011;5283;48.876;8.962;2022-12-18T16:34:19;35.33;;;19.27;;
10471;SDS011;5283;48.876;8.962;2022-12-18T16:36:49;29.17;;;17.37;;
10471;SDS011;5283;48.876;8.962;2022-12-18T16:39:16;33.40;;;18.67;;
10471;SDS011;5283;48.876;8.962;2022-12-18T16:41:43;35.10;;;18.77;;
10471;SDS011;5283;48.876;8.962;2022-12-18T16:44:10;31.90;;;18.23;;
10471;SDS011;5283;48.876;8.962;2022-12-18T16:46:37;36.53;;;20.27;;
10471;SDS011;5283;48.876;8.962;2022-12-18T16:49:04;35.70;;;18.97;;
10471;SDS011;5283;48.876;8.962;2022-12-18T16:51:31;34.83;;;18.90;;
10471;SDS011;5283;48.876;8.962;2022-12-18T16:53:58;33.37;;;19.50;;
10471;SDS011;5283;48.876;8.962;2022-12-18T16:56:25;34.93;;;20.80;;
10471;SDS011;5283;48.876;8.962;2022-12-18T16:58:52;41.87;;;23.73;;
10471;SDS011;5283;48.876;8.962;2022-12-18T17:01:21;39.37;;;21.67;;
10471;SDS011;5283;48.876;8.962;2022-12-18T17:03:57;36.10;;;19.17;;
10471;SDS011;5283;48.876;8.962;2022-12-18T17:06:29;33.97;;;20.60;;
10471;SDS011;5283;48.876;8.962;2022-12-18T17:08:58;34.80;;;20.00;;
10471;SDS011;5283;48.876;8.962;2022-12-18T17:11:27;36.13;;;20.33;;
10471;SDS011;5283;48.876;8.962;2022-12-18T17:13:55;37.10;;;19.83;;